createdAt,value
2018-10-11T00:01:39.282Z,33.10
2018-10-11T00:04:07.790Z,29.67
2018-10-11T00:06:36.259Z,30.50
2018-10-11T00:09:07.139Z,29.17
2018-10-11T00:11:35.591Z,30.23
2018-10-11T00:14:04.052Z,28.60
2018-10-11T00:16:32.554Z,28.53
2018-10-11T00:19:01.019Z,24.73
2018-10-11T00:21:29.491Z,25.07
2018-10-11T00:23:57.958Z,23.50
2018-10-11T00:26:26.465Z,23.97
2018-10-11T00:28:55.015Z,24.40
2018-10-11T00:31:23.482Z,23.13
2018-10-11T00:33:51.930Z,22.87
2018-10-11T00:36:20.394Z,24.77
2018-10-11T00:38:48.851Z,24.73
2018-10-11T00:41:17.406Z,25.30
2018-10-11T00:43:45.859Z,23.60
2018-10-11T00:46:14.335Z,25.83
2018-10-11T00:48:42.783Z,22.87
2018-10-11T00:51:11.260Z,22.43
2018-10-11T00:53:39.722Z,25.10
2018-10-11T00:56:08.222Z,24.07
2018-10-11T00:58:36.683Z,23.40
2018-10-11T01:01:05.151Z,26.77
2018-10-11T01:03:33.606Z,25.83
2018-10-11T01:06:02.101Z,25.67
2018-10-11T01:08:30.631Z,24.43
2018-10-11T01:10:59.086Z,23.33
2018-10-11T01:13:27.555Z,23.37
2018-10-11T01:15:56.016Z,21.77
2018-10-11T01:18:24.583Z,20.63
2018-10-11T01:20:53.193Z,20.40
2018-10-11T01:23:21.646Z,20.03
2018-10-11T01:25:50.123Z,19.57
2018-10-11T01:28:18.591Z,19.80
2018-10-11T01:30:52.434Z,19.90
2018-10-11T01:33:20.894Z,21.80
2018-10-11T01:35:49.346Z,19.87
2018-10-11T01:38:17.821Z,18.90
2018-10-11T01:40:46.358Z,17.60
2018-10-11T01:43:14.884Z,19.40
2018-10-11T01:45:43.366Z,18.30
2018-10-11T01:48:11.882Z,18.47
2018-10-11T01:50:40.385Z,20.37
2018-10-11T01:53:08.906Z,17.47
2018-10-11T01:55:37.379Z,18.93
2018-10-11T01:58:05.890Z,19.70
2018-10-11T02:00:34.359Z,21.20
2018-10-11T02:03:02.818Z,19.33
2018-10-11T02:05:31.334Z,20.50
2018-10-11T02:08:00.131Z,20.97
2018-10-11T02:10:29.423Z,19.20
2018-10-11T02:12:58.743Z,20.07
2018-10-11T02:15:27.927Z,18.43
2018-10-11T02:17:57.042Z,19.40
2018-10-11T02:20:25.827Z,20.03
2018-10-11T02:22:54.311Z,17.90
2018-10-11T02:25:22.795Z,18.33
2018-10-11T02:27:51.262Z,18.30
2018-10-11T02:30:19.764Z,18.20
2018-10-11T02:32:48.248Z,18.70
2018-10-11T02:35:16.698Z,18.67
2018-10-11T02:37:45.158Z,18.57
2018-10-11T02:40:13.611Z,20.00
2018-10-11T02:42:42.093Z,21.20
2018-10-11T02:45:10.560Z,19.57
2018-10-11T02:47:39.038Z,19.80
2018-10-11T02:50:07.607Z,17.57
2018-10-11T02:52:36.059Z,19.50
2018-10-11T02:55:04.959Z,19.70
2018-10-11T02:57:44.610Z,20.90
2018-10-11T03:00:13.154Z,20.13
2018-10-11T03:02:42.900Z,21.13
2018-10-11T03:05:16.618Z,20.20
2018-10-11T03:07:45.244Z,19.27
2018-10-11T03:10:14.040Z,20.40
2018-10-11T03:12:51.545Z,18.17
2018-10-11T03:15:20.030Z,19.40
2018-10-11T03:17:48.550Z,19.27
2018-10-11T03:20:17.082Z,19.10
2018-10-11T03:22:45.557Z,19.60
2018-10-11T03:25:14.044Z,21.43
2018-10-11T03:27:42.519Z,21.03
2018-10-11T03:30:13.814Z,21.77
2018-10-11T03:32:42.294Z,20.63
2018-10-11T03:35:10.747Z,21.43
2018-10-11T03:37:39.219Z,20.53
2018-10-11T03:40:07.760Z,21.57
2018-10-11T03:42:36.323Z,22.47
2018-10-11T03:45:04.907Z,22.20
2018-10-11T03:47:33.377Z,24.17
2018-10-11T03:50:01.836Z,22.20
2018-10-11T03:52:30.376Z,25.10
2018-10-11T03:54:58.831Z,23.97
2018-10-11T03:57:27.299Z,24.63
2018-10-11T03:59:55.769Z,23.20
2018-10-11T04:02:24.234Z,24.80
2018-10-11T04:04:52.690Z,24.50
2018-10-11T04:07:21.185Z,23.60
2018-10-11T04:09:49.666Z,22.80
2018-10-11T04:12:18.118Z,23.23
2018-10-11T04:14:46.574Z,22.57
2018-10-11T04:17:15.050Z,21.77
2018-10-11T04:19:43.499Z,23.67
2018-10-11T04:22:12.057Z,22.93
2018-10-11T04:24:40.658Z,24.27
2018-10-11T04:27:09.210Z,22.53
2018-10-11T04:29:37.674Z,23.27
2018-10-11T04:32:06.151Z,23.47
2018-10-11T04:34:34.595Z,23.67
2018-10-11T04:37:03.070Z,24.00
2018-10-11T04:39:31.587Z,24.43
2018-10-11T04:42:00.043Z,26.17
2018-10-11T04:44:29.820Z,25.50
2018-10-11T04:46:58.662Z,23.47
2018-10-11T04:49:27.718Z,25.33
2018-10-11T04:51:56.183Z,25.33
2018-10-11T04:54:24.639Z,23.00
2018-10-11T04:56:53.095Z,24.70
2018-10-11T04:59:21.563Z,26.93
2018-10-11T05:01:50.435Z,27.70
2018-10-11T05:04:18.910Z,27.93
2018-10-11T05:06:47.371Z,29.40
2018-10-11T05:09:15.908Z,28.97
2018-10-11T05:11:44.459Z,29.30
2018-10-11T05:14:14.474Z,28.10
2018-10-11T05:16:43.103Z,30.47
2018-10-11T05:19:11.636Z,31.20
2018-10-11T05:21:40.471Z,30.40
2018-10-11T05:24:08.950Z,29.80
2018-10-11T05:26:37.450Z,29.77
2018-10-11T05:29:05.939Z,27.83
2018-10-11T05:31:34.507Z,28.93
2018-10-11T05:34:02.967Z,28.10
2018-10-11T05:36:31.430Z,25.43
2018-10-11T05:38:59.882Z,27.20
2018-10-11T05:41:28.366Z,27.93
2018-10-11T05:43:56.942Z,29.80
2018-10-11T05:46:31.530Z,29.70
2018-10-11T05:49:00.979Z,31.80
2018-10-11T05:51:30.497Z,32.00
2018-10-11T05:53:59.858Z,32.30
2018-10-11T05:56:30.427Z,31.33
2018-10-11T05:58:59.678Z,30.80
2018-10-11T06:01:28.270Z,31.37
2018-10-11T06:03:57.759Z,33.20
2018-10-11T06:06:26.272Z,27.50
2018-10-11T06:08:55.130Z,31.20
2018-10-11T06:11:23.711Z,32.80
2018-10-11T06:13:52.219Z,30.43
2018-10-11T06:16:20.694Z,30.87
2018-10-11T06:18:49.215Z,31.37
2018-10-11T06:21:17.727Z,30.93
2018-10-11T06:23:46.243Z,30.47
2018-10-11T06:26:15.112Z,27.67
2018-10-11T06:28:43.738Z,27.80
2018-10-11T06:31:12.322Z,29.40
2018-10-11T06:33:42.209Z,28.17
2018-10-11T06:36:10.839Z,30.23
2018-10-11T06:38:39.235Z,28.10
2018-10-11T06:41:07.736Z,29.20
2018-10-11T06:43:36.286Z,27.93
2018-10-11T06:46:04.818Z,27.97
2018-10-11T06:48:33.370Z,26.20
2018-10-11T06:51:01.871Z,24.50
2018-10-11T06:53:30.429Z,25.60
2018-10-11T06:55:58.957Z,25.70
2018-10-11T06:58:27.395Z,25.50
2018-10-11T07:00:55.851Z,23.80
2018-10-11T07:03:24.344Z,25.10
2018-10-11T07:05:52.942Z,25.77
2018-10-11T07:08:21.674Z,23.80
2018-10-11T07:10:50.135Z,23.80
2018-10-11T07:13:18.610Z,22.10
2018-10-11T07:15:47.084Z,21.77
2018-10-11T07:18:15.547Z,21.27
2018-10-11T07:20:44.243Z,22.23
2018-10-11T07:23:12.770Z,20.73
2018-10-11T07:25:41.421Z,22.10
2018-10-11T07:28:09.778Z,21.20
2018-10-11T07:30:38.286Z,21.97
2018-10-11T07:33:06.823Z,21.50
2018-10-11T07:35:35.344Z,21.30
2018-10-11T07:38:03.779Z,21.60
2018-10-11T07:40:32.435Z,22.57
2018-10-11T07:43:00.854Z,23.97
2018-10-11T07:45:29.320Z,22.37
2018-10-11T07:47:58.174Z,22.40
2018-10-11T07:50:26.751Z,22.03
2018-10-11T07:52:55.356Z,21.00
2018-10-11T07:55:23.813Z,21.47
2018-10-11T07:57:52.300Z,20.70
2018-10-11T08:00:20.886Z,20.90
2018-10-11T08:02:49.361Z,22.07
2018-10-11T08:05:17.815Z,20.30
2018-10-11T08:07:46.360Z,20.20
2018-10-11T08:10:14.853Z,22.47
2018-10-11T08:12:43.322Z,20.00
2018-10-11T08:15:11.891Z,19.80
2018-10-11T08:17:40.609Z,22.00
2018-10-11T08:20:09.114Z,19.37
2018-10-11T08:22:37.582Z,20.03
2018-10-11T08:25:06.282Z,20.70
2018-10-11T08:27:34.601Z,20.20
2018-10-11T08:30:03.259Z,20.47
2018-10-11T08:32:31.934Z,20.30
2018-10-11T08:35:00.218Z,18.87
2018-10-11T08:37:28.794Z,18.17
2018-10-11T08:39:57.207Z,17.67
2018-10-11T08:42:25.670Z,17.80
2018-10-11T08:44:54.130Z,18.90
2018-10-11T08:47:22.627Z,18.13
2018-10-11T08:49:51.086Z,19.47
2018-10-11T08:52:19.619Z,18.80
2018-10-11T08:54:49.556Z,19.70
2018-10-11T08:57:18.855Z,19.40
2018-10-11T08:59:47.407Z,19.37
2018-10-11T09:02:15.934Z,19.37
2018-10-11T09:04:44.715Z,19.53
2018-10-11T09:07:13.190Z,19.60
2018-10-11T09:09:42.131Z,20.70
2018-10-11T09:12:10.555Z,20.20
2018-10-11T09:14:39.022Z,20.10
2018-10-11T09:17:07.549Z,15.80
2018-10-11T09:19:35.990Z,19.43
2018-10-11T09:22:04.528Z,17.33
2018-10-11T09:24:33.017Z,17.90
2018-10-11T09:27:01.511Z,19.70
2018-10-11T09:29:29.998Z,17.00
2018-10-11T09:31:58.467Z,17.37
2018-10-11T09:34:26.929Z,17.60
2018-10-11T09:36:55.398Z,18.70
2018-10-11T09:39:23.867Z,17.60
2018-10-11T09:41:52.330Z,16.37
2018-10-11T09:44:20.790Z,16.43
2018-10-11T09:46:49.338Z,16.13
2018-10-11T09:49:17.812Z,15.43
2018-10-11T09:51:46.288Z,15.83
2018-10-11T09:54:14.815Z,15.70
2018-10-11T09:57:49.831Z,14.57
2018-10-11T10:00:23.614Z,15.93
2018-10-11T10:02:52.615Z,16.63
2018-10-11T10:05:21.090Z,16.53
2018-10-11T10:07:49.554Z,16.23
2018-10-11T10:10:18.014Z,16.17
2018-10-11T10:12:46.481Z,15.33
2018-10-11T10:15:14.977Z,14.70
2018-10-11T10:17:43.443Z,13.53
2018-10-11T10:20:11.988Z,15.00
2018-10-11T10:22:40.459Z,15.13
2018-10-11T10:25:08.938Z,16.00
2018-10-11T10:27:37.410Z,15.70
2018-10-11T10:30:11.562Z,16.17
2018-10-11T10:32:40.101Z,15.90
2018-10-11T10:35:08.582Z,15.70
2018-10-11T10:37:37.039Z,14.30
2018-10-11T10:40:05.604Z,16.47
2018-10-11T10:42:34.027Z,15.93
2018-10-11T10:45:02.979Z,16.13
2018-10-11T10:47:31.491Z,15.13
2018-10-11T10:49:59.940Z,15.20
2018-10-11T10:52:28.403Z,15.20
2018-10-11T10:54:56.870Z,15.37
2018-10-11T10:57:25.330Z,15.03
2018-10-11T10:59:53.804Z,15.97
2018-10-11T11:02:22.264Z,14.63
2018-10-11T11:04:50.731Z,14.83
2018-10-11T11:07:19.234Z,14.53
2018-10-11T11:09:47.694Z,15.20
2018-10-11T11:12:16.153Z,17.03
2018-10-11T11:14:44.606Z,14.73
2018-10-11T11:17:13.066Z,14.70
2018-10-11T11:19:41.539Z,15.83
2018-10-11T11:22:10.051Z,16.00
2018-10-11T11:24:38.503Z,16.33
2018-10-11T11:27:06.970Z,15.73
2018-10-11T11:29:35.432Z,16.90
2018-10-11T11:32:03.923Z,15.80
2018-10-11T11:34:32.433Z,15.73
2018-10-11T11:37:00.922Z,16.60
2018-10-11T11:39:29.383Z,14.90
2018-10-11T11:41:57.855Z,15.27
2018-10-11T11:44:26.367Z,14.53
2018-10-11T11:46:54.844Z,14.90
2018-10-11T11:49:23.303Z,14.97
2018-10-11T11:51:51.864Z,14.80
2018-10-11T11:54:21.648Z,16.10
2018-10-11T11:56:51.054Z,15.00
2018-10-11T11:59:19.542Z,14.90
2018-10-11T12:01:48.216Z,15.93
2018-10-11T12:04:16.758Z,16.93
2018-10-11T12:06:45.230Z,16.20
2018-10-11T12:09:14.534Z,16.30
2018-10-11T12:11:43.559Z,15.40
2018-10-11T12:14:12.027Z,14.77
2018-10-11T12:16:40.564Z,15.07
2018-10-11T12:19:10.558Z,15.03
2018-10-11T12:21:39.330Z,15.10
2018-10-11T12:24:07.810Z,14.20
2018-10-11T12:26:36.275Z,14.73
2018-10-11T12:29:05.023Z,16.47
2018-10-11T12:31:33.501Z,15.27
2018-10-11T12:34:01.984Z,15.60
2018-10-11T12:36:30.498Z,15.87
2018-10-11T12:38:58.923Z,16.23
2018-10-11T12:41:27.410Z,15.50
2018-10-11T12:43:55.882Z,15.23
2018-10-11T12:46:24.378Z,14.03
2018-10-11T12:48:52.850Z,14.80
2018-10-11T12:51:21.314Z,15.73
2018-10-11T12:53:49.770Z,14.90
2018-10-11T12:56:18.302Z,14.57
2018-10-11T12:58:46.710Z,14.00
2018-10-11T13:01:17.271Z,16.13
2018-10-11T13:03:43.695Z,15.43
2018-10-11T13:06:12.163Z,17.30
2018-10-11T13:08:40.674Z,17.27
2018-10-11T13:11:09.175Z,14.50
2018-10-11T13:13:37.676Z,13.80
2018-10-11T13:16:06.179Z,14.40
2018-10-11T13:18:34.650Z,13.10
2018-10-11T13:21:03.115Z,15.17
2018-10-11T13:23:31.572Z,15.27
2018-10-11T13:26:00.030Z,14.03
2018-10-11T13:28:28.503Z,12.50
2018-10-11T13:30:56.958Z,12.70
2018-10-11T13:33:25.423Z,14.00
2018-10-11T13:35:53.891Z,13.50
2018-10-11T13:38:22.343Z,13.27
2018-10-11T13:40:53.257Z,13.23
2018-10-11T13:43:19.271Z,11.80
2018-10-11T13:45:48.464Z,12.00
2018-10-11T13:48:16.423Z,14.10
2018-10-11T13:50:44.919Z,13.47
2018-10-11T13:53:18.366Z,14.80
2018-10-11T13:55:45.272Z,13.27
2018-10-11T13:58:10.446Z,13.63
2018-10-11T14:00:38.939Z,14.10
2018-10-11T14:03:07.614Z,13.40
2018-10-11T14:05:36.075Z,14.03
2018-10-11T14:08:04.562Z,18.00
2018-10-11T14:10:33.110Z,18.17
2018-10-11T14:13:01.551Z,16.43
2018-10-11T14:15:30.004Z,19.83
2018-10-11T14:18:03.253Z,18.70
2018-10-11T14:20:26.966Z,17.23
2018-10-11T14:22:55.436Z,14.67
2018-10-11T14:25:23.921Z,16.87
2018-10-11T14:27:52.382Z,14.90
2018-10-11T14:30:20.834Z,15.47
2018-10-11T14:32:49.327Z,14.77
2018-10-11T14:35:17.794Z,15.07
2018-10-11T14:37:46.250Z,20.67
2018-10-11T14:40:14.764Z,15.40
2018-10-11T14:42:43.271Z,14.63
2018-10-11T14:45:11.834Z,16.37
2018-10-11T14:47:40.314Z,16.83
2018-10-11T14:50:08.924Z,19.70
2018-10-11T14:52:37.504Z,15.20
2018-10-11T14:55:06.407Z,15.90
2018-10-11T14:57:34.875Z,15.90
2018-10-11T15:00:03.539Z,15.00
2018-10-11T15:02:32.069Z,16.23
2018-10-11T15:05:00.535Z,16.80
2018-10-11T15:07:29.110Z,16.37
2018-10-11T15:09:57.598Z,17.00
2018-10-11T15:12:26.074Z,17.83
2018-10-11T15:14:54.543Z,18.17
2018-10-11T15:17:23.021Z,19.00
2018-10-11T15:19:51.494Z,16.50
2018-10-11T15:22:20.111Z,17.80
2018-10-11T15:24:48.564Z,18.73
2018-10-11T15:27:17.123Z,18.70
2018-10-11T15:29:45.647Z,19.20
2018-10-11T15:32:14.110Z,18.97
2018-10-11T15:34:42.590Z,19.07
2018-10-11T15:37:11.063Z,20.10
2018-10-11T15:39:39.527Z,19.43
2018-10-11T15:42:08.027Z,19.43
2018-10-11T15:44:36.508Z,19.17
2018-10-11T15:47:05.010Z,17.83
2018-10-11T15:49:33.534Z,17.90
2018-10-11T15:52:02.041Z,18.20
2018-10-11T15:54:30.495Z,19.50
2018-10-11T15:56:58.966Z,18.87
2018-10-11T15:59:27.435Z,20.23
2018-10-11T16:01:55.898Z,19.00
2018-10-11T16:04:24.366Z,18.13
2018-10-11T16:06:52.852Z,18.97
2018-10-11T16:09:21.360Z,20.50
2018-10-11T16:11:49.878Z,21.37
2018-10-11T16:14:18.337Z,20.40
2018-10-11T16:16:46.794Z,19.30
2018-10-11T16:19:15.331Z,21.27
2018-10-11T16:21:43.830Z,20.83
2018-10-11T16:24:12.310Z,24.10
2018-10-11T16:26:40.799Z,21.30
2018-10-11T16:29:09.343Z,20.00
2018-10-11T16:31:37.874Z,20.20
2018-10-11T16:34:06.336Z,21.37
2018-10-11T16:36:34.809Z,20.93
2018-10-11T16:39:03.733Z,21.03
2018-10-11T16:41:32.271Z,21.00
2018-10-11T16:44:00.723Z,21.07
2018-10-11T16:46:29.208Z,21.57
2018-10-11T16:48:57.671Z,21.47
2018-10-11T16:51:26.139Z,21.70
2018-10-11T16:53:54.610Z,21.03
2018-10-11T16:56:23.085Z,20.90
2018-10-11T16:58:51.562Z,21.87
2018-10-11T17:01:20.023Z,21.07
2018-10-11T17:03:48.479Z,21.20
2018-10-11T17:06:16.939Z,22.20
2018-10-11T17:08:45.404Z,21.70
2018-10-11T17:11:13.886Z,22.03
2018-10-11T17:13:42.447Z,22.10
2018-10-11T17:16:10.914Z,21.13
2018-10-11T17:18:39.374Z,21.73
2018-10-11T17:21:07.890Z,22.60
2018-10-11T17:23:36.579Z,22.90
2018-10-11T17:26:05.234Z,22.77
2018-10-11T17:28:33.748Z,24.10
2018-10-11T17:31:02.227Z,22.97
2018-10-11T17:33:30.766Z,21.80
2018-10-11T17:35:59.263Z,23.03
2018-10-11T17:38:27.731Z,22.37
2018-10-11T17:40:56.235Z,24.30
2018-10-11T17:43:24.694Z,22.87
2018-10-11T17:45:53.164Z,21.80
2018-10-11T17:48:21.619Z,24.07
2018-10-11T17:50:50.083Z,22.43
2018-10-11T17:53:18.554Z,23.87
2018-10-11T17:55:47.023Z,23.20
2018-10-11T17:58:15.490Z,25.00
2018-10-11T18:00:43.974Z,24.87
2018-10-11T18:03:12.441Z,26.10
2018-10-11T18:05:40.934Z,26.90
2018-10-11T18:08:09.419Z,25.73
2018-10-11T18:10:37.887Z,23.57
2018-10-11T18:13:06.551Z,24.40
2018-10-11T18:15:35.088Z,23.10
2018-10-11T18:18:03.588Z,23.10
2018-10-11T18:20:32.223Z,24.00
2018-10-11T18:23:00.676Z,24.70
2018-10-11T18:25:29.146Z,27.40
2018-10-11T18:27:57.610Z,24.43
2018-10-11T18:30:26.087Z,27.77
2018-10-11T18:32:54.580Z,25.80
2018-10-11T18:35:23.910Z,25.77
2018-10-11T18:37:52.414Z,25.73
2018-10-11T18:40:20.901Z,25.43
2018-10-11T18:42:49.404Z,26.73
2018-10-11T18:45:18.028Z,26.30
2018-10-11T18:47:46.499Z,24.60
2018-10-11T18:50:14.987Z,25.37
2018-10-11T18:52:43.455Z,25.00
2018-10-11T18:55:11.937Z,25.27
2018-10-11T18:57:40.469Z,23.63
2018-10-11T19:00:09.020Z,24.73
2018-10-11T19:02:37.543Z,25.37
2018-10-11T19:05:06.096Z,26.00
2018-10-11T19:07:34.590Z,27.00
2018-10-11T19:10:03.142Z,26.63
2018-10-11T19:12:31.646Z,28.00
2018-10-11T19:15:00.109Z,27.87
2018-10-11T19:17:28.589Z,28.90
2018-10-11T19:19:57.065Z,30.10
2018-10-11T19:22:25.532Z,30.90
2018-10-11T19:24:54.038Z,28.80
2018-10-11T19:27:22.522Z,27.73
2018-10-11T19:29:50.994Z,24.23
2018-10-11T19:32:19.522Z,26.47
2018-10-11T19:34:48.006Z,27.63
2018-10-11T19:37:16.698Z,28.40
2018-10-11T19:39:45.159Z,28.80
2018-10-11T19:42:13.626Z,26.93
2018-10-11T19:44:42.127Z,28.43
2018-10-11T19:47:10.718Z,27.63
2018-10-11T19:49:39.185Z,25.27
2018-10-11T19:52:07.725Z,25.23
2018-10-11T19:54:36.187Z,27.00
2018-10-11T19:57:04.667Z,28.27
2018-10-11T19:59:33.198Z,29.87
2018-10-11T20:02:01.667Z,29.30
2018-10-11T20:04:30.121Z,31.70
2018-10-11T20:06:58.615Z,29.27
2018-10-11T20:09:27.096Z,26.57
2018-10-11T20:11:55.563Z,26.10
2018-10-11T20:14:24.039Z,27.07
2018-10-11T20:16:52.598Z,25.90
2018-10-11T20:19:21.062Z,26.60
2018-10-11T20:21:49.522Z,28.50
2018-10-11T20:24:17.991Z,29.33
2018-10-11T20:26:46.447Z,27.83
2018-10-11T20:29:14.914Z,28.47
2018-10-11T20:31:43.379Z,27.90
2018-10-11T20:34:11.855Z,28.67
2018-10-11T20:36:40.317Z,29.87
2018-10-11T20:39:09.758Z,27.73
2018-10-11T20:41:38.597Z,28.90
2018-10-11T20:44:07.111Z,27.03
2018-10-11T20:46:35.582Z,27.07
2018-10-11T20:49:04.067Z,27.87
2018-10-11T20:51:32.642Z,28.90
2018-10-11T20:54:01.099Z,27.80
2018-10-11T20:56:29.566Z,29.87
2018-10-11T20:58:58.028Z,32.57
2018-10-11T21:01:26.490Z,33.87
2018-10-11T21:03:54.949Z,34.30
2018-10-11T21:06:23.430Z,32.80
2018-10-11T21:08:51.882Z,32.10
2018-10-11T21:11:20.350Z,30.40
2018-10-11T21:13:48.839Z,30.70
2018-10-11T21:16:17.323Z,33.10
2018-10-11T21:18:45.775Z,31.97
2018-10-11T21:21:14.290Z,30.90
2018-10-11T21:23:42.920Z,32.40
2018-10-11T21:26:11.392Z,34.37
2018-10-11T21:28:39.860Z,31.23
2018-10-11T21:31:08.315Z,31.83
2018-10-11T21:33:36.811Z,28.73
2018-10-11T21:36:05.398Z,30.80
2018-10-11T21:38:33.848Z,29.90
2018-10-11T21:41:02.324Z,31.50
2018-10-11T21:43:30.815Z,32.20
2018-10-11T21:45:59.279Z,31.97
2018-10-11T21:48:27.756Z,33.20
2018-10-11T21:50:56.211Z,33.90
2018-10-11T21:53:24.679Z,34.23
2018-10-11T21:55:53.142Z,34.07
2018-10-11T21:58:21.642Z,36.53
2018-10-11T22:00:55.402Z,35.00
2018-10-11T22:03:24.151Z,35.47
2018-10-11T22:05:52.639Z,35.17
2018-10-11T22:08:21.116Z,36.70
2018-10-11T22:10:49.587Z,36.67
2018-10-11T22:13:18.053Z,35.43
2018-10-11T22:15:46.523Z,37.40
2018-10-11T22:18:14.978Z,32.43
2018-10-11T22:20:43.512Z,38.77
2018-10-11T22:23:11.950Z,35.37
2018-10-11T22:25:40.414Z,35.57
2018-10-11T22:28:08.956Z,39.37
2018-10-11T22:30:37.495Z,34.80
2018-10-11T22:33:05.953Z,35.27
2018-10-11T22:35:34.394Z,37.83
2018-10-11T22:38:02.859Z,36.00
2018-10-11T22:40:31.557Z,38.60
2018-10-11T22:43:00.037Z,39.27
2018-10-11T22:45:28.538Z,34.50
2018-10-11T22:47:57.319Z,31.40
2018-10-11T22:50:27.038Z,32.10
2018-10-11T22:52:56.126Z,33.53
2018-10-11T22:55:25.542Z,33.10
2018-10-11T22:57:54.674Z,33.37
2018-10-11T23:00:23.141Z,33.20
2018-10-11T23:02:52.203Z,37.47
2018-10-11T23:05:20.774Z,36.63
2018-10-11T23:07:49.478Z,34.63
2018-10-11T23:10:17.955Z,32.93
2018-10-11T23:12:46.411Z,34.43
2018-10-11T23:15:14.988Z,34.10
2018-10-11T23:17:43.358Z,33.50
2018-10-11T23:20:12.107Z,32.17
2018-10-11T23:22:41.583Z,32.30
2018-10-11T23:25:10.608Z,33.10
2018-10-11T23:27:39.462Z,33.47
2018-10-11T23:30:08.383Z,31.37
2018-10-11T23:32:36.910Z,31.17
2018-10-11T23:35:05.991Z,33.20
2018-10-11T23:37:34.484Z,34.70
2018-10-11T23:40:02.947Z,38.70
2018-10-11T23:42:31.450Z,39.40
2018-10-11T23:44:59.910Z,43.80
2018-10-11T23:47:28.428Z,39.97
2018-10-11T23:49:56.926Z,44.23
2018-10-11T23:52:25.606Z,40.47
2018-10-11T23:54:54.136Z,39.07
2018-10-11T23:57:22.608Z,37.40
2018-10-11T23:59:51.063Z,35.63
